Elmira Corning Regional Airport Elmira,Corning US
ICAO: KELM
IATA: ELM
Category: Medium
Scheduled Services: Yes

Elevation: 954 ft
TransAlt. 18000 ft.

Airport Communications:
APP/DEP:119.45
ATIS:125.475
CLNC DEL:121.9
CTAF:122.4
GND/CLNC DEL:121.9
BUFFALO RDO:122.2
TWR:121.1
UNICOM:122.95

KELM Zoom In..

If you have problems with the map follow the link
https://www.worldairports.se/pages/airport.php?
ICAO=KELM

Runways:

(A) RW 05 length 2017 ft width 150 ft
---- / hdg 62

(B) RW 06 length 8001 ft width 150 ft
ILS 109.10 / hdg 62

(C) RW 10 length 5404 ft width 150 ft
---- / hdg 101

(D) RW 23 length 2017 ft width 150 ft
---- / hdg 242

(E) RW 24 length 8001 ft width 150 ft
ILS 109.10 / hdg 242

(F) RW 28 length 5404 ft width 150 ft
---- / hdg 281

Location; KELM
Day. 23 / Time. 17.53 Zulu
* Altimeter: 29.92
* Temperature: 12° c. 53.6°f.
* Wind from: 310° Speed 15 kn with Gusts up to 21 kn.
Dewpoint: 03° c.
Visibility: 10 Statute Miles.
Clouds: Broken 4500 ft.
Clouds: Broken 6000 ft.
Clouds: Overcast 9500 ft.

KELM 231753Z 31015G21KT 10SM BKN045 BKN060 OVC095 12/03 A2992 RMK AO2 RAE1655 SLP135 P0000 60000 T01220028 10133 20022 55009


Wind From 310°
Speed 15 kn.

 
 
jpsmedia.com for Web Design worldairports.se 2018   terms of use